Current Weather

Fort Worth Alliance

Fort Worth, Texas (KAFW)

Report from: Sunday, February 25, 2024 1:53 PM CST
Current time: Sunday, February 25, 2024 2:49 PM CST

Nearby weather – Weather history – Daily summaries
Weather forecast

Temperature27.2°C (81.0°F)
Heat index26.9°C (80.3°F)
Dew point8.3°C (46.9°F)
Winds 15 kts (7.7 m/s, 17.3 mph) South (190°)
Wind gusts 21 kts (10.8 m/s, 24.2 mph)
Peak wind 26 kts (13.4 m/s, 29.9 mph) West-Southwest (250°) at 13:24
Visibility10 mi. (16.1 km)
Clouds Sky clear
Altimeter29.84 in.Hg (1010 mB)
Relative humidity30 %
Density altitude1,694 ft. (516 m)
Sea-level pressure100.9 kPa (1009 mB, 29.81 in.Hg)
Remarks Automated weather observing station with precipitation discriminator
Flight conditions Visual Meteorological Conditions
Raw dataKAFW 251953Z 19015G21KT 10SM CLR 27/08 A2984 RMK AO2 PK WND 25026/1924 SLP094 T02720083
An error has occurred. This application may no longer respond until reloaded. Reload 🗙